sensor_id;sensor_type;location;lat;lon;timestamp;P1;P2;P0
69349;PMS5003;64554;43.452;4.934;2024-02-14T00:00:13;65.67;51.00;31.00
69349;PMS5003;64554;43.452;4.934;2024-02-14T00:02:41;57.50;47.25;30.00
69349;PMS5003;64554;43.452;4.934;2024-02-14T00:05:07;63.25;51.00;31.00
69349;PMS5003;64554;43.452;4.934;2024-02-14T00:07:34;63.75;51.00;32.75
69349;PMS5003;64554;43.452;4.934;2024-02-14T00:10:00;69.50;55.25;34.75
69349;PMS5003;64554;43.452;4.934;2024-02-14T00:12:27;72.75;59.25;35.00
69349;PMS5003;64554;43.452;4.934;2024-02-14T00:14:53;80.50;73.00;43.75
69349;PMS5003;64554;43.452;4.934;2024-02-14T00:17:20;118.80;105.40;59.00
69349;PMS5003;64554;43.452;4.934;2024-02-14T00:19:47;106.25;95.25;54.50
69349;PMS5003;64554;43.452;4.934;2024-02-14T00:22:15;127.20;112.60;63.60
69349;PMS5003;64554;43.452;4.934;2024-02-14T00:24:42;143.75;122.75;67.75
69349;PMS5003;64554;43.452;4.934;2024-02-14T00:27:09;92.25;85.00;48.00
69349;PMS5003;64554;43.452;4.934;2024-02-14T00:29:35;74.00;56.25;35.00
69349;PMS5003;64554;43.452;4.934;2024-02-14T00:32:02;66.25;52.00;31.50
69349;PMS5003;64554;43.452;4.934;2024-02-14T00:34:28;61.00;48.60;29.20
69349;PMS5003;64554;43.452;4.934;2024-02-14T00:36:55;56.40;44.40;29.00
69349;PMS5003;64554;43.452;4.934;2024-02-14T00:39:21;53.80;43.60;28.40
69349;PMS5003;64554;43.452;4.934;2024-02-14T00:41:48;54.00;44.75;28.25
69349;PMS5003;64554;43.452;4.934;2024-02-14T00:44:15;52.20;44.00;27.80
69349;PMS5003;64554;43.452;4.934;2024-02-14T00:46:43;50.50;43.25;26.25
69349;PMS5003;64554;43.452;4.934;2024-02-14T00:49:10;55.50;45.00;27.00
69349;PMS5003;64554;43.452;4.934;2024-02-14T00:51:37;49.75;42.25;27.00
69349;PMS5003;64554;43.452;4.934;2024-02-14T00:54:04;57.00;46.00;28.75
69349;PMS5003;64554;43.452;4.934;2024-02-14T00:56:31;57.40;47.00;30.40
69349;PMS5003;64554;43.452;4.934;2024-02-14T00:58:57;60.20;49.00;30.40
69349;PMS5003;64554;43.452;4.934;2024-02-14T01:01:24;61.75;47.75;29.50
69349;PMS5003;64554;43.452;4.934;2024-02-14T01:03:50;67.25;51.00;30.25
69349;PMS5003;64554;43.452;4.934;2024-02-14T01:06:17;59.40;47.00;31.00
69349;PMS5003;64554;43.452;4.934;2024-02-14T01:08:44;57.50;46.50;28.00
69349;PMS5003;64554;43.452;4.934;2024-02-14T01:11:11;56.80;45.80;28.00
69349;PMS5003;64554;43.452;4.934;2024-02-14T01:13:38;52.00;41.50;27.00
69349;PMS5003;64554;43.452;4.934;2024-02-14T01:16:04;54.00;43.60;27.80
69349;PMS5003;64554;43.452;4.934;2024-02-14T01:18:31;48.60;40.80;26.40
69349;PMS5003;64554;43.452;4.934;2024-02-14T01:20:58;49.80;41.60;26.20
69349;PMS5003;64554;43.452;4.934;2024-02-14T01:23:27;54.00;43.00;27.25
69349;PMS5003;64554;43.452;4.934;2024-02-14T01:25:54;51.40;43.60;27.40
69349;PMS5003;64554;43.452;4.934;2024-02-14T01:28:21;47.60;39.80;25.80
69349;PMS5003;64554;43.452;4.934;2024-02-14T01:30:48;47.60;38.00;25.20
69349;PMS5003;64554;43.452;4.934;2024-02-14T01:33:14;41.50;36.50;23.00
69349;PMS5003;64554;43.452;4.934;2024-02-14T01:35:43;43.50;36.75;24.50
69349;PMS5003;64554;43.452;4.934;2024-02-14T01:38:09;48.50;39.00;26.00
69349;PMS5003;64554;43.452;4.934;2024-02-14T01:40:36;49.75;41.50;27.50
69349;PMS5003;64554;43.452;4.934;2024-02-14T01:43:02;56.50;45.50;30.00
69349;PMS5003;64554;43.452;4.934;2024-02-14T01:45:29;57.00;46.00;30.50
69349;PMS5003;64554;43.452;4.934;2024-02-14T01:47:55;67.00;53.50;33.00
69349;PMS5003;64554;43.452;4.934;2024-02-14T01:50:22;68.00;53.00;34.25
69349;PMS5003;64554;43.452;4.934;2024-02-14T01:52:56;63.75;50.00;32.75
69349;PMS5003;64554;43.452;4.934;2024-02-14T01:55:23;62.00;48.40;32.00
69349;PMS5003;64554;43.452;4.934;2024-02-14T01:57:50;57.00;45.00;29.00
69349;PMS5003;64554;43.452;4.934;2024-02-14T02:00:17;54.75;45.00;30.25
69349;PMS5003;64554;43.452;4.934;2024-02-14T02:02:44;64.00;51.00;31.40
69349;PMS5003;64554;43.452;4.934;2024-02-14T02:05:13;60.50;50.25;31.75
69349;PMS5003;64554;43.452;4.934;2024-02-14T02:07:40;59.60;47.00;28.80
69349;PMS5003;64554;43.452;4.934;2024-02-14T02:10:12;50.80;40.80;27.00
69349;PMS5003;64554;43.452;4.934;2024-02-14T02:12:38;53.40;42.00;28.00
69349;PMS5003;64554;43.452;4.934;2024-02-14T02:15:05;45.25;39.00;26.50
69349;PMS5003;64554;43.452;4.934;2024-02-14T02:17:33;53.00;43.00;28.00
69349;PMS5003;64554;43.452;4.934;2024-02-14T02:20:02;52.60;41.80;27.00
69349;PMS5003;64554;43.452;4.934;2024-02-14T02:22:29;51.00;40.50;27.00
69349;PMS5003;64554;43.452;4.934;2024-02-14T02:24:58;54.00;42.25;25.50
69349;PMS5003;64554;43.452;4.934;2024-02-14T02:27:25;50.00;40.80;26.60
69349;PMS5003;64554;43.452;4.934;2024-02-14T02:29:51;48.80;40.00;25.00
69349;PMS5003;64554;43.452;4.934;2024-02-14T02:32:18;48.00;40.00;25.50
69349;PMS5003;64554;43.452;4.934;2024-02-14T02:34:45;48.00;40.20;27.00
69349;PMS5003;64554;43.452;4.934;2024-02-14T02:37:11;58.25;45.00;29.00
69349;PMS5003;64554;43.452;4.934;2024-02-14T02:39:38;52.75;43.50;28.00
69349;PMS5003;64554;43.452;4.934;2024-02-14T02:42:05;52.75;44.25;28.00
69349;PMS5003;64554;43.452;4.934;2024-02-14T02:44:32;53.75;44.50;28.00
69349;PMS5003;64554;43.452;4.934;2024-02-14T02:46:58;51.60;41.00;28.00
69349;PMS5003;64554;43.452;4.934;2024-02-14T02:49:27;48.50;41.00;28.00
69349;PMS5003;64554;43.452;4.934;2024-02-14T02:51:55;49.20;40.00;24.40
69349;PMS5003;64554;43.452;4.934;2024-02-14T02:54:21;46.00;39.75;27.00
69349;PMS5003;64554;43.452;4.934;2024-02-14T02:56:49;47.00;40.00;25.50
69349;PMS5003;64554;43.452;4.934;2024-02-14T02:59:16;51.00;41.00;27.00
69349;PMS5003;64554;43.452;4.934;2024-02-14T03:01:43;47.60;39.80;27.00
69349;PMS5003;64554;43.452;4.934;2024-02-14T03:04:10;50.50;41.00;26.50
69349;PMS5003;64554;43.452;4.934;2024-02-14T03:06:39;52.00;43.00;28.00
69349;PMS5003;64554;43.452;4.934;2024-02-14T03:09:06;51.20;44.20;27.00
69349;PMS5003;64554;43.452;4.934;2024-02-14T03:11:34;48.00;40.00;27.50
69349;PMS5003;64554;43.452;4.934;2024-02-14T03:14:02;48.33;39.00;27.00
69349;PMS5003;64554;43.452;4.934;2024-02-14T03:16:28;50.00;40.00;27.00
69349;PMS5003;64554;43.452;4.934;2024-02-14T03:18:55;50.60;41.60;28.00
69349;PMS5003;64554;43.452;4.934;2024-02-14T03:21:22;48.75;41.75;27.75
69349;PMS5003;64554;43.452;4.934;2024-02-14T03:23:48;54.00;44.00;29.00
69349;PMS5003;64554;43.452;4.934;2024-02-14T03:26:15;56.00;45.00;29.00
69349;PMS5003;64554;43.452;4.934;2024-02-14T03:28:41;52.00;43.60;27.80
69349;PMS5003;64554;43.452;4.934;2024-02-14T03:31:08;52.80;43.80;28.00
69349;PMS5003;64554;43.452;4.934;2024-02-14T03:33:37;52.75;43.25;27.25
69349;PMS5003;64554;43.452;4.934;2024-02-14T03:36:04;55.25;45.50;29.00
69349;PMS5003;64554;43.452;4.934;2024-02-14T03:38:30;54.00;45.00;29.00
69349;PMS5003;64554;43.452;4.934;2024-02-14T03:40:57;47.00;38.00;27.00
69349;PMS5003;64554;43.452;4.934;2024-02-14T03:43:24;54.00;44.20;27.00
69349;PMS5003;64554;43.452;4.934;2024-02-14T03:45:50;50.75;42.00;27.00
69349;PMS5003;64554;43.452;4.934;2024-02-14T03:48:20;53.20;44.00;28.40
69349;PMS5003;64554;43.452;4.934;2024-02-14T03:50:48;47.40;38.80;25.00
69349;PMS5003;64554;43.452;4.934;2024-02-14T03:53:15;46.25;39.25;24.50
69349;PMS5003;64554;43.452;4.934;2024-02-14T03:55:41;48.50;39.25;25.00
69349;PMS5003;64554;43.452;4.934;2024-02-14T03:58:07;48.75;39.75;25.75
69349;PMS5003;64554;43.452;4.934;2024-02-14T04:00:34;49.00;41.40;26.80
69349;PMS5003;64554;43.452;4.934;2024-02-14T04:03:01;50.50;40.75;26.00
69349;PMS5003;64554;43.452;4.934;2024-02-14T04:05:29;48.60;41.40;26.60
69349;PMS5003;64554;43.452;4.934;2024-02-14T04:07:55;52.80;43.60;26.40
69349;PMS5003;64554;43.452;4.934;2024-02-14T04:10:22;49.00;40.25;27.75
69349;PMS5003;64554;43.452;4.934;2024-02-14T04:12:48;50.25;40.50;25.50
69349;PMS5003;64554;43.452;4.934;2024-02-14T04:15:15;47.00;39.80;25.40
69349;PMS5003;64554;43.452;4.934;2024-02-14T04:17:41;49.00;39.60;26.00
69349;PMS5003;64554;43.452;4.934;2024-02-14T04:20:08;50.00;43.00;27.80
69349;PMS5003;64554;43.452;4.934;2024-02-14T04:22:35;51.00;41.50;26.50
69349;PMS5003;64554;43.452;4.934;2024-02-14T04:25:02;46.40;38.80;27.00
69349;PMS5003;64554;43.452;4.934;2024-02-14T04:27:28;49.40;41.40;25.00
69349;PMS5003;64554;43.452;4.934;2024-02-14T04:29:54;49.00;41.25;26.25
69349;PMS5003;64554;43.452;4.934;2024-02-14T04:32:21;46.00;37.40;25.20
69349;PMS5003;64554;43.452;4.934;2024-02-14T04:34:47;41.75;36.00;25.00
69349;PMS5003;64554;43.452;4.934;2024-02-14T04:37:15;48.00;40.00;25.00
69349;PMS5003;64554;43.452;4.934;2024-02-14T04:39:44;49.25;42.00;27.00
69349;PMS5003;64554;43.452;4.934;2024-02-14T04:42:11;49.75;41.25;25.75
69349;PMS5003;64554;43.452;4.934;2024-02-14T04:44:38;49.00;40.00;25.00
69349;PMS5003;64554;43.452;4.934;2024-02-14T04:47:05;47.00;39.00;25.00
69349;PMS5003;64554;43.452;4.934;2024-02-14T04:49:32;43.20;37.20;24.00
69349;PMS5003;64554;43.452;4.934;2024-02-14T04:51:59;54.00;42.80;27.00
69349;PMS5003;64554;43.452;4.934;2024-02-14T04:54:25;57.33;47.67;29.00
69349;PMS5003;64554;43.452;4.934;2024-02-14T04:56:53;59.25;48.00;29.50
69349;PMS5003;64554;43.452;4.934;2024-02-14T04:59:24;56.60;46.80;29.00
69349;PMS5003;64554;43.452;4.934;2024-02-14T05:01:51;58.50;46.00;29.00
69349;PMS5003;64554;43.452;4.934;2024-02-14T05:04:20;55.50;44.75;28.25
69349;PMS5003;64554;43.452;4.934;2024-02-14T05:06:47;55.00;44.67;29.00
69349;PMS5003;64554;43.452;4.934;2024-02-14T05:09:15;52.25;44.00;27.75
69349;PMS5003;64554;43.452;4.934;2024-02-14T05:11:41;55.00;44.50;28.00
69349;PMS5003;64554;43.452;4.934;2024-02-14T05:14:08;54.50;43.50;28.00
69349;PMS5003;64554;43.452;4.934;2024-02-14T05:16:35;55.00;46.00;29.00
69349;PMS5003;64554;43.452;4.934;2024-02-14T05:19:01;49.00;42.00;28.00
69349;PMS5003;64554;43.452;4.934;2024-02-14T05:21:28;50.75;42.00;27.25
69349;PMS5003;64554;43.452;4.934;2024-02-14T05:23:54;50.20;41.60;27.00
69349;PMS5003;64554;43.452;4.934;2024-02-14T05:26:21;55.20;45.00;28.00
69349;PMS5003;64554;43.452;4.934;2024-02-14T05:28:47;52.25;44.00;28.25
69349;PMS5003;64554;43.452;4.934;2024-02-14T05:31:14;56.40;45.80;29.00
69349;PMS5003;64554;43.452;4.934;2024-02-14T05:33:41;57.75;46.75;29.00
69349;PMS5003;64554;43.452;4.934;2024-02-14T05:36:08;48.50;40.50;26.25
69349;PMS5003;64554;43.452;4.934;2024-02-14T05:38:34;49.00;42.00;27.00
69349;PMS5003;64554;43.452;4.934;2024-02-14T05:41:02;52.25;43.00;27.75
69349;PMS5003;64554;43.452;4.934;2024-02-14T05:43:28;50.50;42.00;27.00
69349;PMS5003;64554;43.452;4.934;2024-02-14T05:45:54;52.50;43.50;27.00
69349;PMS5003;64554;43.452;4.934;2024-02-14T05:48:21;44.00;37.50;24.75
69349;PMS5003;64554;43.452;4.934;2024-02-14T05:50:48;49.50;42.00;25.50
69349;PMS5003;64554;43.452;4.934;2024-02-14T05:53:15;47.00;40.80;25.60
69349;PMS5003;64554;43.452;4.934;2024-02-14T05:55:41;52.67;42.00;26.67
69349;PMS5003;64554;43.452;4.934;2024-02-14T05:58:08;60.50;46.75;29.00
69349;PMS5003;64554;43.452;4.934;2024-02-14T06:00:34;54.60;44.00;29.00
69349;PMS5003;64554;43.452;4.934;2024-02-14T06:03:03;52.00;43.00;28.00
69349;PMS5003;64554;43.452;4.934;2024-02-14T06:05:32;52.00;43.50;28.75
69349;PMS5003;64554;43.452;4.934;2024-02-14T06:07:59;54.50;44.00;29.50
69349;PMS5003;64554;43.452;4.934;2024-02-14T06:10:25;59.20;47.60;33.00
69349;PMS5003;64554;43.452;4.934;2024-02-14T06:12:52;64.00;52.50;33.00
69349;PMS5003;64554;43.452;4.934;2024-02-14T06:15:19;55.50;43.25;27.00
69349;PMS5003;64554;43.452;4.934;2024-02-14T06:17:45;52.00;42.80;28.00
69349;PMS5003;64554;43.452;4.934;2024-02-14T06:20:12;52.00;42.60;29.00
69349;PMS5003;64554;43.452;4.934;2024-02-14T06:22:39;44.25;39.25;26.00
69349;PMS5003;64554;43.452;4.934;2024-02-14T06:25:15;49.00;38.75;26.00
69349;PMS5003;64554;43.452;4.934;2024-02-14T06:27:42;49.80;40.80;27.00
69349;PMS5003;64554;43.452;4.934;2024-02-14T06:30:09;48.00;41.00;26.00
69349;PMS5003;64554;43.452;4.934;2024-02-14T06:32:36;51.40;42.00;27.00
69349;PMS5003;64554;43.452;4.934;2024-02-14T06:35:03;54.25;44.75;29.00
69349;PMS5003;64554;43.452;4.934;2024-02-14T06:37:30;46.00;38.00;26.00
69349;PMS5003;64554;43.452;4.934;2024-02-14T06:40:10;52.00;42.00;27.00
69349;PMS5003;64554;43.452;4.934;2024-02-14T06:42:36;40.75;36.00;23.75
69349;PMS5003;64554;43.452;4.934;2024-02-14T06:45:03;49.00;40.80;25.80
69349;PMS5003;64554;43.452;4.934;2024-02-14T06:47:30;42.80;37.00;24.00
69349;PMS5003;64554;43.452;4.934;2024-02-14T06:49:57;48.75;39.50;24.50
69349;PMS5003;64554;43.452;4.934;2024-02-14T06:52:23;54.75;43.50;27.75
69349;PMS5003;64554;43.452;4.934;2024-02-14T06:54:50;64.75;51.75;30.75
69349;PMS5003;64554;43.452;4.934;2024-02-14T06:57:16;70.80;55.00;33.00
69349;PMS5003;64554;43.452;4.934;2024-02-14T06:59:44;63.80;48.40;29.20
69349;PMS5003;64554;43.452;4.934;2024-02-14T07:02:10;56.75;47.00;29.00
69349;PMS5003;64554;43.452;4.934;2024-02-14T07:04:39;54.75;44.00;28.00
69349;PMS5003;64554;43.452;4.934;2024-02-14T07:07:06;52.00;43.00;28.00
69349;PMS5003;64554;43.452;4.934;2024-02-14T07:09:33;66.25;54.50;36.75
69349;PMS5003;64554;43.452;4.934;2024-02-14T07:12:02;56.80;46.00;29.60
69349;PMS5003;64554;43.452;4.934;2024-02-14T07:14:28;56.75;45.50;29.75
69349;PMS5003;64554;43.452;4.934;2024-02-14T07:16:55;59.80;46.00;29.60
69349;PMS5003;64554;43.452;4.934;2024-02-14T07:19:21;50.60;42.00;26.00
69349;PMS5003;64554;43.452;4.934;2024-02-14T07:21:48;50.67;40.67;24.67
69349;PMS5003;64554;43.452;4.934;2024-02-14T07:24:15;48.00;37.50;23.00
69349;PMS5003;64554;43.452;4.934;2024-02-14T07:26:41;45.00;36.60;24.00
69349;PMS5003;64554;43.452;4.934;2024-02-14T07:29:11;43.00;38.00;23.75
69349;PMS5003;64554;43.452;4.934;2024-02-14T07:31:38;36.00;33.00;23.00
69349;PMS5003;64554;43.452;4.934;2024-02-14T07:34:04;39.60;35.20;24.00
69349;PMS5003;64554;43.452;4.934;2024-02-14T07:36:35;41.67;35.33;24.33
69349;PMS5003;64554;43.452;4.934;2024-02-14T07:39:01;43.20;36.40;26.00
69349;PMS5003;64554;43.452;4.934;2024-02-14T07:41:28;36.00;33.00;23.60
69349;PMS5003;64554;43.452;4.934;2024-02-14T07:43:55;39.40;32.00;22.00
69349;PMS5003;64554;43.452;4.934;2024-02-14T07:46:23;46.60;37.80;23.80
69349;PMS5003;64554;43.452;4.934;2024-02-14T07:48:52;43.60;35.60;23.40
69349;PMS5003;64554;43.452;4.934;2024-02-14T07:51:19;41.50;35.50;22.50
69349;PMS5003;64554;43.452;4.934;2024-02-14T07:53:46;41.75;35.00;23.00
69349;PMS5003;64554;43.452;4.934;2024-02-14T07:56:13;38.50;32.50;20.00
69349;PMS5003;64554;43.452;4.934;2024-02-14T07:58:39;34.50;32.00;23.00
69349;PMS5003;64554;43.452;4.934;2024-02-14T08:01:06;33.60;31.00;22.00
69349;PMS5003;64554;43.452;4.934;2024-02-14T08:03:32;38.00;31.33;20.00
69349;PMS5003;64554;43.452;4.934;2024-02-14T08:05:59;31.75;29.50;18.75
69349;PMS5003;64554;43.452;4.934;2024-02-14T08:08:27;29.20;26.20;20.00
69349;PMS5003;64554;43.452;4.934;2024-02-14T08:10:54;28.00;28.00;18.00
69349;PMS5003;64554;43.452;4.934;2024-02-14T08:13:21;35.75;31.75;20.75
69349;PMS5003;64554;43.452;4.934;2024-02-14T08:15:48;34.50;30.75;19.25
69349;PMS5003;64554;43.452;4.934;2024-02-14T08:18:14;46.50;38.00;24.00
69349;PMS5003;64554;43.452;4.934;2024-02-14T08:20:41;46.75;38.25;25.00
69349;PMS5003;64554;43.452;4.934;2024-02-14T08:23:08;27.80;26.60;19.00
69349;PMS5003;64554;43.452;4.934;2024-02-14T08:25:34;24.00;23.00;16.00
69349;PMS5003;64554;43.452;4.934;2024-02-14T08:28:01;26.00;25.00;14.60
69349;PMS5003;64554;43.452;4.934;2024-02-14T08:30:27;24.60;22.60;13.60
69349;PMS5003;64554;43.452;4.934;2024-02-14T08:32:54;17.50;17.50;11.50
69349;PMS5003;64554;43.452;4.934;2024-02-14T08:35:20;23.00;21.00;14.00
69349;PMS5003;64554;43.452;4.934;2024-02-14T08:37:47;24.40;22.40;13.00
69349;PMS5003;64554;43.452;4.934;2024-02-14T08:40:14;17.60;17.60;14.00
69349;PMS5003;64554;43.452;4.934;2024-02-14T08:42:40;23.67;20.67;13.00
69349;PMS5003;64554;43.452;4.934;2024-02-14T08:45:07;26.25;23.50;14.25
69349;PMS5003;64554;43.452;4.934;2024-02-14T08:47:35;21.80;21.80;14.60
69349;PMS5003;64554;43.452;4.934;2024-02-14T08:50:01;24.00;24.00;17.00
69349;PMS5003;64554;43.452;4.934;2024-02-14T08:52:29;31.60;30.60;18.00
69349;PMS5003;64554;43.452;4.934;2024-02-14T08:54:55;30.40;23.00;16.00
69349;PMS5003;64554;43.452;4.934;2024-02-14T08:57:22;29.20;27.00;20.00
69349;PMS5003;64554;43.452;4.934;2024-02-14T08:59:49;27.20;24.80;17.60
69349;PMS5003;64554;43.452;4.934;2024-02-14T09:02:16;26.00;24.25;16.25
69349;PMS5003;64554;43.452;4.934;2024-02-14T09:04:43;25.75;20.75;15.25
69349;PMS5003;64554;43.452;4.934;2024-02-14T09:07:10;26.00;24.00;17.00
69349;PMS5003;64554;43.452;4.934;2024-02-14T09:09:37;22.50;21.25;13.75
69349;PMS5003;64554;43.452;4.934;2024-02-14T09:12:04;33.00;32.00;20.00
69349;PMS5003;64554;43.452;4.934;2024-02-14T09:14:31;28.40;26.80;18.80
69349;PMS5003;64554;43.452;4.934;2024-02-14T09:16:57;26.75;26.50;15.25
69349;PMS5003;64554;43.452;4.934;2024-02-14T09:19:24;22.00;21.00;13.50
69349;PMS5003;64554;43.452;4.934;2024-02-14T09:21:51;18.40;17.00;13.00
69349;PMS5003;64554;43.452;4.934;2024-02-14T09:24:18;15.80;15.80;11.20
69349;PMS5003;64554;43.452;4.934;2024-02-14T09:26:45;25.00;25.00;18.00
69349;PMS5003;64554;43.452;4.934;2024-02-14T09:29:11;14.00;14.00;11.00
69349;PMS5003;64554;43.452;4.934;2024-02-14T09:31:38;15.00;15.00;11.00
69349;PMS5003;64554;43.452;4.934;2024-02-14T09:34:04;17.40;16.40;11.80
69349;PMS5003;64554;43.452;4.934;2024-02-14T09:36:31;22.00;22.00;15.00
69349;PMS5003;64554;43.452;4.934;2024-02-14T09:38:57;30.00;25.20;15.80
69349;PMS5003;64554;43.452;4.934;2024-02-14T09:41:37;19.00;19.00;11.50
69349;PMS5003;64554;43.452;4.934;2024-02-14T09:44:04;22.25;21.00;12.00
69349;PMS5003;64554;43.452;4.934;2024-02-14T09:46:30;22.00;22.00;15.60
69349;PMS5003;64554;43.452;4.934;2024-02-14T09:48:58;22.60;22.00;15.00
69349;PMS5003;64554;43.452;4.934;2024-02-14T09:51:25;25.00;23.40;15.00
69349;PMS5003;64554;43.452;4.934;2024-02-14T09:53:53;15.75;15.75;10.00
69349;PMS5003;64554;43.452;4.934;2024-02-14T09:56:21;15.80;14.80;11.00
69349;PMS5003;64554;43.452;4.934;2024-02-14T09:58:50;19.60;19.40;13.40
69349;PMS5003;64554;43.452;4.934;2024-02-14T10:01:22;14.75;14.00;10.00
69349;PMS5003;64554;43.452;4.934;2024-02-14T10:03:50;18.40;15.40;11.40
69349;PMS5003;64554;43.452;4.934;2024-02-14T10:06:17;21.75;20.75;16.75
69349;PMS5003;64554;43.452;4.934;2024-02-14T10:08:46;24.40;22.40;16.40
69349;PMS5003;64554;43.452;4.934;2024-02-14T10:11:28;12.50;12.50;9.50
69349;PMS5003;64554;43.452;4.934;2024-02-14T10:13:54;11.20;11.00;8.00
69349;PMS5003;64554;43.452;4.934;2024-02-14T10:16:26;12.75;12.00;9.00
69349;PMS5003;64554;43.452;4.934;2024-02-14T10:18:53;13.25;12.25;9.25
69349;PMS5003;64554;43.452;4.934;2024-02-14T10:21:20;20.25;20.25;11.50
69349;PMS5003;64554;43.452;4.934;2024-02-14T10:23:50;21.00;21.00;15.00
69349;PMS5003;64554;43.452;4.934;2024-02-14T10:26:18;14.80;13.80;10.00
69349;PMS5003;64554;43.452;4.934;2024-02-14T10:28:45;16.80;15.00;11.20
69349;PMS5003;64554;43.452;4.934;2024-02-14T10:31:15;9.00;9.00;6.25
69349;PMS5003;64554;43.452;4.934;2024-02-14T10:33:42;12.60;12.60;8.40
69349;PMS5003;64554;43.452;4.934;2024-02-14T10:36:09;12.40;10.40;6.20
69349;PMS5003;64554;43.452;4.934;2024-02-14T10:38:38;11.80;11.40;8.00
69349;PMS5003;64554;43.452;4.934;2024-02-14T10:41:07;11.00;11.00;7.20
69349;PMS5003;64554;43.452;4.934;2024-02-14T10:43:36;17.40;16.80;11.80
69349;PMS5003;64554;43.452;4.934;2024-02-14T10:46:05;15.20;13.80;10.20
69349;PMS5003;64554;43.452;4.934;2024-02-14T10:48:34;15.25;14.25;10.00
69349;PMS5003;64554;43.452;4.934;2024-02-14T10:51:04;16.50;13.00;10.00
69349;PMS5003;64554;43.452;4.934;2024-02-14T10:53:33;11.00;11.00;8.00
69349;PMS5003;64554;43.452;4.934;2024-02-14T10:56:04;15.75;14.75;10.00
69349;PMS5003;64554;43.452;4.934;2024-02-14T10:58:31;17.80;17.80;12.00
69349;PMS5003;64554;43.452;4.934;2024-02-14T11:00:58;13.00;13.00;8.25
69349;PMS5003;64554;43.452;4.934;2024-02-14T11:03:25;18.00;14.50;9.00
69349;PMS5003;64554;43.452;4.934;2024-02-14T11:05:53;14.00;13.25;8.00
69349;PMS5003;64554;43.452;4.934;2024-02-14T11:08:20;12.20;9.80;6.80
69349;PMS5003;64554;43.452;4.934;2024-02-14T11:10:53;7.60;7.60;6.40
69349;PMS5003;64554;43.452;4.934;2024-02-14T11:13:20;13.40;11.40;8.00
69349;PMS5003;64554;43.452;4.934;2024-02-14T11:15:51;14.75;14.75;8.00
69349;PMS5003;64554;43.452;4.934;2024-02-14T11:18:24;11.00;11.00;8.00
69349;PMS5003;64554;43.452;4.934;2024-02-14T11:20:51;12.20;12.20;8.20
69349;PMS5003;64554;43.452;4.934;2024-02-14T11:23:21;10.00;10.00;7.60
69349;PMS5003;64554;43.452;4.934;2024-02-14T11:25:48;15.75;10.50;6.75
69349;PMS5003;64554;43.452;4.934;2024-02-14T11:28:15;12.40;10.40;6.80
69349;PMS5003;64554;43.452;4.934;2024-02-14T11:30:42;11.00;8.60;6.00
69349;PMS5003;64554;43.452;4.934;2024-02-14T11:33:18;13.00;10.00;6.75
69349;PMS5003;64554;43.452;4.934;2024-02-14T11:35:49;7.60;6.60;6.00
69349;PMS5003;64554;43.452;4.934;2024-02-14T11:38:21;9.40;5.40;3.60
69349;PMS5003;64554;43.452;4.934;2024-02-14T11:40:48;6.75;5.75;4.25
69349;PMS5003;64554;43.452;4.934;2024-02-14T11:43:17;10.50;8.75;6.00
69349;PMS5003;64554;43.452;4.934;2024-02-14T11:45:44;4.25;4.25;3.25
69349;PMS5003;64554;43.452;4.934;2024-02-14T11:48:12;6.25;6.00;3.75
69349;PMS5003;64554;43.452;4.934;2024-02-14T11:50:43;5.00;5.00;3.50
69349;PMS5003;64554;43.452;4.934;2024-02-14T11:53:10;6.00;6.00;4.60
69349;PMS5003;64554;43.452;4.934;2024-02-14T11:55:38;5.20;5.20;4.00
69349;PMS5003;64554;43.452;4.934;2024-02-14T11:58:11;8.20;6.20;4.20
69349;PMS5003;64554;43.452;4.934;2024-02-14T12:00:39;6.50;6.50;4.50
69349;PMS5003;64554;43.452;4.934;2024-02-14T12:03:07;6.80;6.80;5.00
69349;PMS5003;64554;43.452;4.934;2024-02-14T12:05:35;6.00;6.00;3.75
69349;PMS5003;64554;43.452;4.934;2024-02-14T12:08:06;7.60;6.00;4.60
69349;PMS5003;64554;43.452;4.934;2024-02-14T12:10:34;5.67;5.67;3.67
69349;PMS5003;64554;43.452;4.934;2024-02-14T12:13:06;5.20;5.20;2.60
69349;PMS5003;64554;43.452;4.934;2024-02-14T12:15:39;6.00;4.00;3.25
69349;PMS5003;64554;43.452;4.934;2024-02-14T12:18:06;7.00;6.00;4.75
69349;PMS5003;64554;43.452;4.934;2024-02-14T12:20:34;6.00;5.50;3.50
69349;PMS5003;64554;43.452;4.934;2024-02-14T12:23:00;8.00;8.00;4.75
69349;PMS5003;64554;43.452;4.934;2024-02-14T12:25:27;6.00;6.00;4.00
69349;PMS5003;64554;43.452;4.934;2024-02-14T12:27:53;7.00;7.00;4.50
69349;PMS5003;64554;43.452;4.934;2024-02-14T12:30:23;7.20;7.20;4.20
69349;PMS5003;64554;43.452;4.934;2024-02-14T12:33:00;5.20;5.20;4.60
69349;PMS5003;64554;43.452;4.934;2024-02-14T12:35:34;11.50;8.50;6.00
69349;PMS5003;64554;43.452;4.934;2024-02-14T12:38:02;8.75;8.75;5.75
69349;PMS5003;64554;43.452;4.934;2024-02-14T12:40:29;10.80;10.00;8.00
69349;PMS5003;64554;43.452;4.934;2024-02-14T12:42:55;7.25;6.00;4.00
69349;PMS5003;64554;43.452;4.934;2024-02-14T12:45:22;11.40;9.40;6.40
69349;PMS5003;64554;43.452;4.934;2024-02-14T12:47:49;5.60;5.60;4.60
69349;PMS5003;64554;43.452;4.934;2024-02-14T12:50:16;10.00;10.00;7.00
69349;PMS5003;64554;43.452;4.934;2024-02-14T12:52:43;9.75;9.75;6.00
69349;PMS5003;64554;43.452;4.934;2024-02-14T12:55:09;10.40;10.40;8.40
69349;PMS5003;64554;43.452;4.934;2024-02-14T12:57:36;10.00;10.00;7.40
69349;PMS5003;64554;43.452;4.934;2024-02-14T13:00:03;9.25;9.25;6.75
69349;PMS5003;64554;43.452;4.934;2024-02-14T13:02:35;11.25;11.25;9.00
69349;PMS5003;64554;43.452;4.934;2024-02-14T13:05:02;11.00;9.40;6.40
69349;PMS5003;64554;43.452;4.934;2024-02-14T13:07:31;17.50;15.50;10.50
69349;PMS5003;64554;43.452;4.934;2024-02-14T13:09:57;15.00;14.00;9.00
69349;PMS5003;64554;43.452;4.934;2024-02-14T13:12:24;15.50;14.75;9.50
69349;PMS5003;64554;43.452;4.934;2024-02-14T13:14:51;14.00;14.00;10.50
69349;PMS5003;64554;43.452;4.934;2024-02-14T13:17:17;15.00;13.00;10.80
69349;PMS5003;64554;43.452;4.934;2024-02-14T13:19:44;11.40;11.20;8.80
69349;PMS5003;64554;43.452;4.934;2024-02-14T13:22:10;12.60;11.60;8.60
69349;PMS5003;64554;43.452;4.934;2024-02-14T13:24:37;9.75;9.75;7.25
69349;PMS5003;64554;43.452;4.934;2024-02-14T13:27:04;10.25;10.25;8.00
69349;PMS5003;64554;43.452;4.934;2024-02-14T13:29:31;13.80;13.40;9.00
69349;PMS5003;64554;43.452;4.934;2024-02-14T13:31:57;18.50;16.00;11.00
69349;PMS5003;64554;43.452;4.934;2024-02-14T13:34:23;13.60;13.60;9.40
69349;PMS5003;64554;43.452;4.934;2024-02-14T13:36:50;17.00;15.00;8.20
69349;PMS5003;64554;43.452;4.934;2024-02-14T13:39:16;16.25;13.75;9.75
69349;PMS5003;64554;43.452;4.934;2024-02-14T13:41:43;18.50;18.00;9.50
69349;PMS5003;64554;43.452;4.934;2024-02-14T13:44:11;18.25;15.50;10.50
69349;PMS5003;64554;43.452;4.934;2024-02-14T13:46:37;14.00;14.00;11.00
69349;PMS5003;64554;43.452;4.934;2024-02-14T13:49:04;15.60;15.60;9.00
69349;PMS5003;64554;43.452;4.934;2024-02-14T13:51:30;16.50;15.00;9.50